Sigfox identifier Datetime Temperature Humidity SNR
003C4F06 2018-10-09 09:01:03 20.6 40 15.4
003C4F06 2018-10-09 07:57:05 20.6 40 15.1
003C4F06 2018-10-09 06:53:05 20.6 39 14.7
003C4F06 2018-10-09 05:49:07 20.6 39 14.3
003C4F06 2018-10-09 04:45:06 20.6 39 14.1
003C4F06 2018-10-09 01:33:15 20.6 39 13.1
003C4F06 2018-10-09 00:29:18 20.6 39 12.9
003C4F06 2018-10-08 23:25:19 20.6 39 13.2
003C4F06 2018-10-08 22:21:24 20.5 39 13.1
003C4F06 2018-10-08 21:17:27 20.6 39 12.9
003C4F06 2018-10-08 20:13:29 20.5 38 12.9
003C4F06 2018-10-08 19:09:30 20.6 38 12.9
003C4F06 2018-10-08 18:05:34 20.4 38 12.4
003C4F06 2018-10-08 17:01:33 20.4 38 12.6
003C4F06 2018-10-08 15:57:37 20.4 38 12.7
003C4F06 2018-10-08 14:53:39 20.4 38 13
003C4F06 2018-10-08 13:49:34 20.4 38 13
003C4F06 2018-10-08 10:37:43 20.2 39 13.1
003C4F06 2018-10-06 21:18:52 20.8 39 13.8
003C4F06 2018-10-05 14:24:15 21 38 14.1
003C4F06 2018-10-05 13:20:17 21 38 14
003C4F06 2018-10-05 12:16:17 21 37 14.1
003C4F06 2018-10-05 11:12:21 20.8 36 14.4
003C4F06 2018-10-05 10:08:22 20.6 34 14.8
003C4F06 2018-10-05 09:04:26 20.6 33 15
003C4F06 2018-10-05 08:00:32 20.6 32 15.1
003C4F06 2018-10-05 06:56:39 20.6 31 15.2
003C4F06 2018-10-05 05:52:44 20.6 31 15.2
003C4F06 2018-10-05 04:48:50 20.6 30 15.2
003C4F06 2018-10-05 03:44:55 20.6 31 15.1
003C4F06 2018-10-05 02:40:56 20.6 31 15.1
003C4F06 2018-10-05 01:36:56 20.6 31 15.2
003C4F06 2018-10-05 00:32:58 20.8 31 15
003C4F06 2018-10-04 23:29:03 20.8 31 14.7
003C4F06 2018-10-04 22:25:02 20.8 31 15.9
003C4F06 2018-10-04 21:21:03 20.8 31 15.9
003C4F06 2018-10-04 20:17:04 20.8 31 15.9
003C4F06 2018-10-04 19:13:05 20.8 31 16
003C4F06 2018-10-04 18:09:09 20.8 31 16
003C4F06 2018-10-04 17:05:11 20.7 31 16.1
003C4F06 2018-10-04 16:01:08 20.6 31 16.1
003C4F06 2018-10-04 14:57:08 20.8 32 16.2
003C4F06 2018-10-04 13:53:10 20.6 32 16.3
003C4F06 2018-10-04 11:45:07 20.4 33 16.1
003C4F06 2018-10-04 10:41:09 20.4 34 16
003C4F06 2018-10-04 09:37:11 20.2 34 16.1
003C4F06 2018-10-04 07:29:18 20.2 36 16.3
003C4F06 2018-10-04 06:25:19 20.2 37 16.2
003C4F06 2018-10-04 05:21:17 20.2 38 16
003C4F06 2018-10-04 04:17:19 20.2 38 15.9
003C4F06 2018-10-04 03:13:18 20.3 39 16.1
003C4F06 2018-10-04 02:09:18 20.3 39 16.2
003C4F06 2018-10-04 01:05:17 20.4 40 16.4
003C4F06 2018-10-04 00:01:16 20.4 40 16.7
003C4F06 2018-10-03 22:57:19 20.4 40 16.7
003C4F06 2018-10-03 21:53:18 20.4 41 17.3
003C4F06 2018-10-03 20:49:17 20.5 41 18
003C4F06 2018-10-03 19:45:20 20.6 41 18.7
003C4F06 2018-10-03 17:37:12 20.6 42 19.8
003C4F06 2018-10-03 16:33:08 20.8 43 14.9
003C4F06 2018-10-03 15:29:07 21 44 16.9
003C4F06 2018-10-03 14:25:02 20.8 50 0